Time;durP1;ratioP1;P1;durP2;ratioP2;P2;SDS_P1;SDS_P2;PMS_P1;PMS_P2;Temp;Humidity;BMP_temperature;BMP_pressure;BME280_temperature;BME280_humidity;BME280_pressure;Samples;Min_cycle;Max_cycle;Signal;HPM_P1;HPM_P2
2022/05/06 00:00:53;;;;;;;6.67;6.03;;;12.20;99.90;;;;;;5071553;28;20433;-71
2022/05/06 00:03:18;;;;;;;7.43;6.40;;;12.20;99.90;;;;;;5071319;28;20173;-70
2022/05/06 00:05:43;;;;;;;6.97;6.27;;;12.10;99.90;;;;;;5071355;28;20182;-70
2022/05/06 00:08:11;;;;;;;7.00;6.30;;;12.10;99.90;;;;;;5072310;28;20209;-70
2022/05/06 00:10:36;;;;;;;7.87;6.00;;;12.20;99.90;;;;;;5074818;28;20534;-70
2022/05/06 00:13:02;;;;;;;6.73;6.00;;;12.20;99.90;;;;;;5074795;28;20415;-70
2022/05/06 00:15:27;;;;;;;7.50;6.80;;;12.20;99.90;;;;;;5074994;28;20161;-70
2022/05/06 00:17:53;;;;;;;6.40;5.90;;;12.20;99.90;;;;;;5074671;28;20201;-70
2022/05/06 00:20:18;;;;;;;9.30;6.73;;;12.30;99.90;;;;;;5074296;28;20162;-70
2022/05/06 00:22:44;;;;;;;5.90;5.30;;;12.30;99.90;;;;;;5074555;28;20173;-70
2022/05/06 00:25:10;;;;;;;6.73;6.03;;;12.20;99.90;;;;;;5074991;28;20177;-70
2022/05/06 00:27:40;;;;;;;7.30;6.43;;;12.30;99.90;;;;;;5074488;28;20253;-70
2022/05/06 00:30:06;;;;;;;7.00;6.30;;;12.30;99.90;;;;;;5074401;28;20167;-70
2022/05/06 00:32:33;;;;;;;7.50;6.70;;;12.30;99.90;;;;;;5074621;28;20936;-70
2022/05/06 00:34:58;;;;;;;6.60;5.93;;;12.30;99.90;;;;;;5074563;28;20408;-70
2022/05/06 00:37:24;;;;;;;7.90;7.10;;;12.30;99.90;;;;;;5073781;28;20418;-71
2022/05/06 00:39:49;;;;;;;7.50;6.70;;;12.30;99.90;;;;;;5073927;28;20207;-70
2022/05/06 00:42:16;;;;;;;6.47;5.87;;;12.20;99.90;;;;;;5074484;28;20166;-70
2022/05/06 00:44:42;;;;;;;8.47;6.50;;;12.20;99.90;;;;;;5074297;28;20170;-71
2022/05/06 00:47:08;;;;;;;7.30;6.60;;;12.20;99.90;;;;;;5074205;28;21031;-70
2022/05/06 00:49:35;;;;;;;7.20;6.53;;;12.20;99.90;;;;;;5074186;28;20281;-71
2022/05/06 00:52:04;;;;;;;7.50;6.80;;;12.20;99.90;;;;;;5074652;28;20404;-71
2022/05/06 00:54:34;;;;;;;7.10;6.13;;;12.10;99.90;;;;;;5073304;28;20954;-71
2022/05/06 00:57:00;;;;;;;7.50;6.80;;;12.10;99.90;;;;;;5074505;28;20403;-71
2022/05/06 00:59:26;;;;;;;7.97;6.83;;;12.10;99.90;;;;;;5073724;28;20451;-69
2022/05/06 01:01:51;;;;;;;6.17;5.67;;;12.10;99.90;;;;;;5073973;28;20908;-71
2022/05/06 01:04:17;;;;;;;7.00;6.30;;;12.10;99.90;;;;;;5074037;28;20581;-71
2022/05/06 01:06:44;;;;;;;7.63;6.93;;;12.00;99.90;;;;;;5074343;28;20197;-71
2022/05/06 01:09:18;;;;;;;8.47;6.97;;;12.00;99.90;;;;;;5073440;28;20208;-70
2022/05/06 01:11:44;;;;;;;9.40;7.33;;;12.00;99.90;;;;;;5073807;28;20473;-71
2022/05/06 01:14:10;;;;;;;6.97;6.30;;;12.00;99.90;;;;;;5073831;28;20436;-71
2022/05/06 01:16:36;;;;;;;7.17;5.93;;;12.00;99.90;;;;;;5073713;28;20448;-70
2022/05/06 01:19:03;;;;;;;7.60;6.57;;;12.00;99.90;;;;;;5073655;28;20765;-71
2022/05/06 01:21:35;;;;;;;7.87;5.70;;;11.90;99.90;;;;;;5073840;28;20800;-70
2022/05/06 01:24:01;;;;;;;6.47;5.90;;;11.90;99.90;;;;;;5073768;28;20412;-71
2022/05/06 01:26:52;;;;;;;7.20;6.27;;;11.90;99.90;;;;;;5073494;28;20407;-69
2022/05/06 01:29:18;;;;;;;8.43;6.60;;;11.80;99.90;;;;;;5071885;28;20428;-70
2022/05/06 01:31:44;;;;;;;7.57;6.50;;;11.80;99.90;;;;;;5073756;28;20408;-70
2022/05/06 01:34:13;;;;;;;6.43;5.80;;;11.80;99.90;;;;;;5073441;28;20768;-71
2022/05/06 01:36:40;;;;;;;8.10;6.37;;;11.80;99.90;;;;;;5072877;28;20166;-71
2022/05/06 01:39:06;;;;;;;6.93;6.23;;;11.70;99.90;;;;;;5072931;28;20456;-70
2022/05/06 01:41:35;;;;;;;6.87;5.83;;;11.70;99.90;;;;;;5073237;28;20465;-73
2022/05/06 01:44:05;;;;;;;9.33;6.47;;;11.70;99.90;;;;;;5073525;28;20490;-71
2022/05/06 01:46:34;;;;;;;7.20;6.10;;;11.70;99.90;;;;;;5073238;28;20403;-71
2022/05/06 01:49:02;;;;;;;9.00;6.90;;;11.70;99.90;;;;;;5073240;28;20463;-70
2022/05/06 01:51:29;;;;;;;10.33;8.80;;;11.70;99.90;;;;;;5073049;28;20418;-71
2022/05/06 01:53:54;;;;;;;9.40;7.43;;;11.70;99.90;;;;;;5073870;28;20415;-71
2022/05/06 01:56:21;;;;;;;6.93;6.20;;;11.60;99.90;;;;;;5073720;28;20412;-70
2022/05/06 01:58:47;;;;;;;7.50;6.80;;;11.60;99.90;;;;;;5072579;28;20487;-70
2022/05/06 02:01:14;;;;;;;8.87;7.03;;;11.60;99.90;;;;;;5073060;28;20508;-71
2022/05/06 02:06:24;;;;;;;8.07;6.73;;;11.60;99.90;;;;;;5073214;28;20496;-72
2022/05/06 02:08:49;;;;;;;7.57;6.50;;;11.60;99.90;;;;;;5072485;28;20444;-70
2022/05/06 02:11:15;;;;;;;7.23;6.47;;;11.50;99.90;;;;;;5072428;28;20174;-70
2022/05/06 02:13:41;;;;;;;9.77;6.20;;;11.50;99.90;;;;;;5072836;28;20169;-70
2022/05/06 02:16:07;;;;;;;8.60;7.13;;;11.50;99.90;;;;;;5072394;28;20778;-69
2022/05/06 02:18:33;;;;;;;7.50;6.17;;;11.50;99.90;;;;;;5072465;28;20201;-71
2022/05/06 02:20:59;;;;;;;8.13;6.43;;;11.40;99.90;;;;;;5072399;28;20169;-72
2022/05/06 02:23:26;;;;;;;7.93;7.23;;;11.40;99.90;;;;;;5073242;28;20495;-71
2022/05/06 02:25:52;;;;;;;6.60;5.97;;;11.40;99.90;;;;;;5072683;28;20455;-72
2022/05/06 02:28:18;;;;;;;7.27;6.53;;;11.40;99.90;;;;;;5072365;28;20427;-72
2022/05/06 02:33:30;;;;;;;8.20;6.40;;;11.40;99.90;;;;;;5072540;28;20306;-72
2022/05/06 02:35:56;;;;;;;9.10;6.77;;;11.40;99.90;;;;;;5072390;28;20404;-72
2022/05/06 02:38:22;;;;;;;7.43;6.73;;;11.40;99.90;;;;;;5071696;28;20458;-72
2022/05/06 02:40:49;;;;;;;9.83;7.13;;;11.30;99.90;;;;;;5070708;28;20182;-72
2022/05/06 02:43:15;;;;;;;7.20;6.57;;;11.30;99.90;;;;;;5072042;28;20412;-71
2022/05/06 02:45:41;;;;;;;7.43;6.70;;;11.30;99.90;;;;;;5072854;28;20800;-71
2022/05/06 02:48:07;;;;;;;9.00;8.20;;;11.30;99.90;;;;;;5072059;28;20428;-71
2022/05/06 02:50:33;;;;;;;8.17;7.37;;;11.20;99.90;;;;;;5074117;28;20165;-71
2022/05/06 02:52:58;;;;;;;7.43;6.40;;;11.00;99.90;;;;;;5072017;28;20260;-70
2022/05/06 02:55:24;;;;;;;9.80;7.70;;;10.90;99.90;;;;;;5071196;28;20397;-70
2022/05/06 02:57:50;;;;;;;7.73;6.93;;;10.90;99.90;;;;;;5071902;28;20197;-71
2022/05/06 03:00:16;;;;;;;9.00;7.27;;;11.00;99.90;;;;;;5071958;28;20227;-71
2022/05/06 03:02:42;;;;;;;8.40;7.60;;;11.00;99.90;;;;;;5070422;28;20716;-70
2022/05/06 03:05:08;;;;;;;9.20;7.00;;;10.90;99.90;;;;;;5071949;28;20533;-70
2022/05/06 03:07:34;;;;;;;9.23;7.37;;;10.80;99.90;;;;;;5070436;28;20573;-70
2022/05/06 03:10:00;;;;;;;8.60;7.50;;;10.70;99.90;;;;;;5071306;28;20418;-71
2022/05/06 03:12:30;;;;;;;7.50;6.27;;;10.50;99.90;;;;;;5071668;28;20407;-70
2022/05/06 03:14:57;;;;;;;10.60;6.90;;;10.50;99.90;;;;;;5071904;28;20182;-70
2022/05/06 03:17:23;;;;;;;7.23;6.40;;;10.60;99.90;;;;;;5071722;28;20430;-70
2022/05/06 03:19:48;;;;;;;7.50;6.53;;;10.70;99.90;;;;;;5069968;28;20595;-70
2022/05/06 03:22:16;;;;;;;9.10;6.67;;;10.70;99.90;;;;;;5071512;28;20173;-71
2022/05/06 03:24:45;;;;;;;10.20;7.00;;;10.80;99.90;;;;;;5071473;28;20169;-71
2022/05/06 03:29:55;;;;;;;10.43;7.00;;;10.80;99.90;;;;;;5071192;28;20422;-70
2022/05/06 03:32:22;;;;;;;10.37;7.03;;;10.70;99.90;;;;;;5071524;28;20408;-70
2022/05/06 03:34:48;;;;;;;7.40;6.57;;;10.60;99.90;;;;;;5071541;28;20837;-70
2022/05/06 03:37:14;;;;;;;7.17;6.40;;;10.60;99.90;;;;;;5071499;28;20411;-71
2022/05/06 03:39:39;;;;;;;7.33;6.63;;;10.60;99.90;;;;;;5070968;28;20931;-70
2022/05/06 03:42:05;;;;;;;8.37;7.30;;;10.70;99.90;;;;;;5071503;28;20185;-72
2022/05/06 03:44:31;;;;;;;7.90;7.10;;;10.60;99.90;;;;;;5075314;28;20228;-72
2022/05/06 03:46:56;;;;;;;8.07;6.90;;;10.60;99.90;;;;;;5075585;28;20900;-71
2022/05/06 03:49:22;;;;;;;7.60;6.80;;;10.60;99.90;;;;;;5075129;28;20190;-71
2022/05/06 03:51:47;;;;;;;7.97;6.33;;;10.60;99.90;;;;;;5075216;28;20219;-71
2022/05/06 03:54:13;;;;;;;7.63;6.83;;;10.60;99.90;;;;;;5075338;28;20562;-71
2022/05/06 03:56:39;;;;;;;10.00;6.90;;;10.60;99.90;;;;;;5075293;28;20189;-71
2022/05/06 03:59:07;;;;;;;9.70;6.77;;;10.60;99.90;;;;;;5074760;28;20216;-70
2022/05/06 04:01:33;;;;;;;9.10;7.67;;;10.50;99.90;;;;;;5074914;28;20208;-71
2022/05/06 04:03:58;;;;;;;10.00;7.37;;;10.30;99.90;;;;;;5075008;28;20502;-72
2022/05/06 04:06:25;;;;;;;8.57;7.60;;;10.20;99.90;;;;;;5072832;28;20965;-72
2022/05/06 04:08:51;;;;;;;8.07;7.27;;;10.20;99.90;;;;;;5088515;22;20534;-68
2022/05/06 04:11:19;;;;;;;9.20;7.50;;;10.20;99.90;;;;;;5074441;28;20405;-67
2022/05/06 04:13:44;;;;;;;7.70;6.90;;;10.30;99.90;;;;;;5075286;28;20161;-68
2022/05/06 04:16:10;;;;;;;9.87;6.97;;;10.30;99.90;;;;;;5075115;28;20404;-69
2022/05/06 04:18:35;;;;;;;11.30;7.10;;;10.40;99.90;;;;;;5074862;28;20209;-69
2022/05/06 04:23:45;;;;;;;7.60;6.90;;;10.40;99.90;;;;;;5075016;28;20237;-68
2022/05/06 04:26:14;;;;;;;7.07;6.40;;;10.30;99.90;;;;;;5075025;28;20507;-70
2022/05/06 04:28:40;;;;;;;7.47;6.47;;;10.40;99.90;;;;;;5075259;28;20302;-69
2022/05/06 04:31:07;;;;;;;9.97;7.67;;;10.40;99.90;;;;;;5074676;28;20418;-69
2022/05/06 04:33:34;;;;;;;8.97;6.83;;;10.30;99.90;;;;;;5075587;28;20487;-71
2022/05/06 04:36:00;;;;;;;8.63;7.13;;;10.40;99.90;;;;;;5075147;28;20413;-70
2022/05/06 04:38:27;;;;;;;11.13;8.23;;;10.40;99.90;;;;;;5074230;28;20959;-69
2022/05/06 04:40:56;;;;;;;14.00;7.73;;;10.40;99.90;;;;;;5074578;28;20868;-70
2022/05/06 04:43:22;;;;;;;9.17;8.20;;;10.40;99.90;;;;;;5074864;28;20404;-69
2022/05/06 04:45:49;;;;;;;9.50;7.63;;;10.40;99.90;;;;;;5074911;28;20402;-68
2022/05/06 04:48:15;;;;;;;9.03;7.40;;;10.50;99.90;;;;;;5073345;28;20439;-69
2022/05/06 04:50:43;;;;;;;9.80;8.27;;;10.50;99.90;;;;;;5073357;28;20959;-69
2022/05/06 04:53:09;;;;;;;9.33;7.50;;;10.50;99.90;;;;;;5073318;28;20404;-68
2022/05/06 04:55:36;;;;;;;8.13;7.27;;;10.50;99.90;;;;;;5074771;28;20407;-69
2022/05/06 04:58:03;;;;;;;15.37;9.53;;;10.60;99.90;;;;;;5074507;28;20458;-68
2022/05/06 05:00:29;;;;;;;14.27;9.97;;;10.60;99.90;;;;;;5073045;28;20423;-68
2022/05/06 05:02:55;;;;;;;14.20;9.80;;;10.50;99.90;;;;;;5074508;28;20422;-69
2022/05/06 05:05:21;;;;;;;11.80;10.70;;;10.40;99.90;;;;;;5074498;28;20411;-69
2022/05/06 05:07:47;;;;;;;12.60;10.70;;;10.30;99.90;;;;;;5064923;28;20518;-69
2022/05/06 05:10:12;;;;;;;9.20;8.30;;;10.30;99.90;;;;;;5052549;28;20495;-69
2022/05/06 05:12:38;;;;;;;11.18;9.88;;;10.30;99.90;;;;;;5053643;28;20483;-70
2022/05/06 05:15:04;;;;;;;10.97;9.17;;;10.30;99.90;;;;;;5068937;28;20670;-68
2022/05/06 05:17:30;;;;;;;12.03;9.07;;;10.20;99.90;;;;;;5062023;28;20181;-69
2022/05/06 05:19:56;;;;;;;9.50;8.57;;;10.10;99.90;;;;;;5071338;28;20463;-67
2022/05/06 05:22:21;;;;;;;10.93;8.40;;;10.20;99.90;;;;;;5088898;28;20248;-68
2022/05/06 05:24:47;;;;;;;9.73;8.10;;;10.30;99.90;;;;;;5073117;28;20258;-68
2022/05/06 05:27:13;;;;;;;10.10;9.10;;;10.40;99.90;;;;;;5065913;28;20650;-68
2022/05/06 05:29:40;;;;;;;11.10;8.50;;;10.50;99.90;;;;;;5074818;28;20443;-69
2022/05/06 05:32:06;;;;;;;9.83;8.50;;;10.60;99.90;;;;;;5067136;28;20456;-68
2022/05/06 05:34:32;;;;;;;15.30;10.50;;;10.60;99.90;;;;;;5069226;28;20478;-70
2022/05/06 05:36:57;;;;;;;9.90;8.90;;;10.70;99.90;;;;;;5073152;28;20850;-67
2022/05/06 05:39:23;;;;;;;12.00;8.80;;;10.70;99.90;;;;;;5068908;28;20220;-68
2022/05/06 05:41:48;;;;;;;11.97;8.60;;;10.80;99.90;;;;;;5070465;28;20290;-69
2022/05/06 05:49:43;;;;;;;14.03;8.93;;;11.00;99.90;;;;;;5078285;28;20520;-72
2022/05/06 05:52:09;;;;;;;10.40;8.60;;;11.00;99.90;;;;;;5077876;28;20490;-69
2022/05/06 05:54:35;;;;;;;10.67;8.20;;;11.10;99.90;;;;;;5075869;28;20447;-69
2022/05/06 05:57:00;;;;;;;13.37;8.80;;;11.20;99.90;;;;;;5070702;28;20745;-69
2022/05/06 05:59:26;;;;;;;12.47;9.00;;;11.20;99.90;;;;;;5068782;28;20224;-68
2022/05/06 06:01:51;;;;;;;10.83;9.73;;;11.40;99.90;;;;;;5073815;28;20426;-69
2022/05/06 06:04:17;;;;;;;12.03;8.80;;;11.50;99.90;;;;;;5078824;28;20440;-67
2022/05/06 06:06:42;;;;;;;11.10;8.43;;;11.60;99.90;;;;;;5082043;28;20198;-67
2022/05/06 06:09:09;;;;;;;10.43;7.97;;;11.70;99.90;;;;;;5082666;28;20237;-69
2022/05/06 06:11:37;;;;;;;10.23;8.13;;;11.70;99.90;;;;;;5085655;28;20187;-68
2022/05/06 06:14:03;;;;;;;8.27;7.47;;;11.80;99.90;;;;;;5081452;28;20420;-67
2022/05/06 06:16:29;;;;;;;8.50;7.43;;;11.90;99.90;;;;;;5073057;28;20832;-68
2022/05/06 06:18:58;;;;;;;8.83;7.87;;;12.00;99.90;;;;;;5070841;28;20213;-68
2022/05/06 06:21:26;;;;;;;9.13;7.90;;;12.10;99.90;;;;;;5069252;28;20430;-68
2022/05/06 06:23:52;;;;;;;9.73;8.40;;;12.20;99.90;;;;;;5070845;28;20416;-69
2022/05/06 06:26:18;;;;;;;9.53;8.63;;;12.30;99.90;;;;;;5070614;28;20427;-68
2022/05/06 06:28:44;;;;;;;12.20;8.70;;;12.30;99.90;;;;;;5072995;28;20442;-68
2022/05/06 06:31:09;;;;;;;12.57;10.37;;;12.40;99.90;;;;;;5071603;28;20212;-68
2022/05/06 06:33:37;;;;;;;12.97;8.77;;;12.50;99.90;;;;;;5071911;28;20184;-67
2022/05/06 06:36:07;;;;;;;10.97;8.73;;;12.60;99.90;;;;;;5070288;28;20250;-68
2022/05/06 06:38:33;;;;;;;10.60;9.50;;;12.70;99.90;;;;;;5069761;28;20464;-69
2022/05/06 06:40:59;;;;;;;12.30;10.10;;;12.80;99.90;;;;;;5070539;28;20413;-68
2022/05/06 06:43:25;;;;;;;13.47;9.37;;;12.90;99.90;;;;;;5071725;28;20403;-67
2022/05/06 06:45:50;;;;;;;9.97;8.57;;;13.00;99.90;;;;;;5071952;28;20418;-68
2022/05/06 06:48:16;;;;;;;12.50;9.00;;;13.10;99.90;;;;;;5071400;28;20197;-68
2022/05/06 06:50:42;;;;;;;12.00;9.60;;;13.10;99.90;;;;;;5071367;28;20178;-68
2022/05/06 06:53:07;;;;;;;11.90;9.40;;;13.20;99.90;;;;;;5071609;28;20181;-69
2022/05/06 06:55:34;;;;;;;12.43;9.10;;;13.30;99.90;;;;;;5071218;28;20180;-68
2022/05/06 06:57:59;;;;;;;10.60;9.60;;;13.40;99.90;;;;;;5071303;28;20174;-68
2022/05/06 07:00:25;;;;;;;14.80;9.20;;;13.50;99.90;;;;;;5070961;28;20422;-67
2022/05/06 07:02:51;;;;;;;10.53;9.40;;;13.60;99.90;;;;;;5071500;28;20630;-68
2022/05/06 07:05:17;;;;;;;9.10;7.80;;;13.70;99.90;;;;;;5070698;28;20173;-67
2022/05/06 07:13:11;;;;;;;10.07;8.75;;;14.00;99.90;;;;;;5071063;28;20468;-68
2022/05/06 07:15:37;;;;;;;9.50;8.43;;;14.10;99.90;;;;;;5071841;28;20577;-68
2022/05/06 07:18:02;;;;;;;11.50;9.00;;;14.20;99.90;;;;;;5071071;28;20639;-68
2022/05/06 07:20:28;;;;;;;13.20;10.20;;;14.30;99.90;;;;;;5070254;28;20957;-68
2022/05/06 07:22:54;;;;;;;10.90;9.53;;;14.50;99.80;;;;;;5071431;28;20443;-68
2022/05/06 07:25:19;;;;;;;10.93;9.23;;;14.60;99.50;;;;;;5071423;28;20248;-68
2022/05/06 07:27:45;;;;;;;8.87;7.93;;;14.70;99.20;;;;;;5071477;28;20253;-68
2022/05/06 07:30:10;;;;;;;9.97;7.80;;;14.80;98.20;;;;;;5071260;28;20193;-69
2022/05/06 07:32:37;;;;;;;11.30;7.97;;;14.80;96.80;;;;;;5071672;28;20166;-69
2022/05/06 07:35:03;;;;;;;10.07;7.97;;;15.00;96.90;;;;;;5071853;28;20821;-68
2022/05/06 07:37:33;;;;;;;9.80;8.20;;;15.20;97.00;;;;;;5071494;28;20422;-68
2022/05/06 07:39:59;;;;;;;10.53;8.83;;;15.30;96.70;;;;;;5070945;28;20594;-68
2022/05/06 07:42:25;;;;;;;11.70;8.50;;;15.40;95.40;;;;;;5071267;28;20485;-68
2022/05/06 07:44:50;;;;;;;13.53;8.30;;;15.50;94.80;;;;;;5071191;28;20415;-68
2022/05/06 07:47:16;;;;;;;10.77;8.17;;;15.60;95.10;;;;;;5071110;28;20185;-68
2022/05/06 07:49:42;;;;;;;13.47;9.70;;;15.70;95.00;;;;;;5070495;28;20229;-67
2022/05/06 07:52:07;;;;;;;12.67;8.80;;;15.80;94.70;;;;;;5071021;28;20212;-67
2022/05/06 07:54:33;;;;;;;12.40;8.20;;;15.90;93.60;;;;;;5071102;28;20335;-68
2022/05/06 07:56:58;;;;;;;10.63;8.13;;;16.00;93.50;;;;;;5071270;28;20185;-67
2022/05/06 07:59:24;;;;;;;13.80;9.00;;;16.10;93.70;;;;;;5070458;28;20253;-66
2022/05/06 08:04:34;;;;;;;10.97;8.33;;;16.40;93.50;;;;;;5071234;28;20211;-68
2022/05/06 08:07:01;;;;;;;10.27;8.07;;;16.50;93.30;;;;;;5070864;28;20419;-68
2022/05/06 08:09:26;;;;;;;8.73;7.77;;;16.70;93.20;;;;;;5070573;28;20718;-67
2022/05/06 08:11:52;;;;;;;12.73;8.83;;;16.70;92.80;;;;;;5071044;28;20995;-69
2022/05/06 08:14:18;;;;;;;10.90;8.47;;;16.90;92.70;;;;;;5070828;28;20178;-68
2022/05/06 08:16:45;;;;;;;9.93;7.63;;;17.10;92.60;;;;;;5070927;28;20186;-68
2022/05/06 08:19:11;;;;;;;15.90;8.57;;;17.20;92.10;;;;;;5070494;28;20487;-69
2022/05/06 08:21:37;;;;;;;11.20;8.80;;;17.30;91.90;;;;;;5070496;28;20431;-68
2022/05/06 08:24:03;;;;;;;10.07;8.07;;;17.40;91.70;;;;;;5070405;28;20176;-69
2022/05/06 08:26:29;;;;;;;10.63;8.20;;;17.50;91.60;;;;;;5070262;28;20227;-68
2022/05/06 08:28:55;;;;;;;12.60;7.60;;;17.60;91.50;;;;;;5071048;28;20521;-66
2022/05/06 08:31:21;;;;;;;12.10;8.07;;;17.70;90.80;;;;;;5073658;28;20258;-68
2022/05/06 08:33:46;;;;;;;9.47;7.97;;;17.80;90.40;;;;;;5073931;28;20875;-68
2022/05/06 08:36:12;;;;;;;11.43;7.73;;;17.90;90.20;;;;;;5073929;28;20184;-67
2022/05/06 08:38:38;;;;;;;10.77;9.40;;;18.00;90.10;;;;;;5072472;28;20457;-68
2022/05/06 08:41:04;;;;;;;9.03;8.13;;;18.10;89.00;;;;;;5073458;28;20511;-67
2022/05/06 08:43:29;;;;;;;11.40;9.33;;;18.00;89.30;;;;;;5073976;28;20630;-66
2022/05/06 08:50:50;;;;;;;9.40;8.50;;;17.90;88.90;;;;;;5074020;28;20834;-67
2022/05/06 08:51:47;;;;;;;12.57;9.57;;;18.00;89.50;;;;;;5073767;28;20423;-68
2022/05/06 08:54:12;;;;;;;11.47;8.80;;;18.00;89.00;;;;;;5073618;28;20459;-68
2022/05/06 08:56:38;;;;;;;10.57;9.37;;;18.10;88.60;;;;;;5073742;28;20448;-66
2022/05/06 08:59:03;;;;;;;11.93;10.07;;;18.10;88.50;;;;;;5073790;28;20818;-66
2022/05/06 09:01:29;;;;;;;11.30;8.70;;;18.10;88.10;;;;;;5073458;28;20166;-68
2022/05/06 09:03:56;;;;;;;14.23;9.47;;;18.30;88.60;;;;;;5073427;28;20165;-68
2022/05/06 09:06:30;;;;;;;11.47;8.87;;;18.40;88.60;;;;;;5073938;28;20295;-68
2022/05/06 09:08:57;;;;;;;13.30;9.53;;;18.50;87.90;;;;;;5073603;28;20866;-68
2022/05/06 09:14:17;;;;;;;9.87;8.87;;;18.70;86.30;;;;;;5073645;28;20411;-68
2022/05/06 09:16:44;;;;;;;10.87;8.43;;;18.80;85.80;;;;;;5087572;28;20423;-68
2022/05/06 09:19:22;;;;;;;11.30;9.27;;;18.90;85.90;;;;;;5072631;28;20547;-68
2022/05/06 09:22:08;;;;;;;11.27;9.27;;;18.90;83.50;;;;;;5073096;28;20460;-69
2022/05/06 09:24:38;;;;;;;10.50;9.50;;;18.90;83.70;;;;;;5072771;28;20410;-69
2022/05/06 09:27:14;;;;;;;11.88;10.68;;;19.00;84.10;;;;;;5072233;28;20901;-68
2022/05/06 09:29:51;;;;;;;11.30;9.63;;;19.00;84.80;;;;;;5072533;28;20189;-69
2022/05/06 09:32:32;;;;;;;11.80;9.50;;;19.20;85.30;;;;;;5073169;28;20446;-68
2022/05/06 09:35:13;;;;;;;11.63;9.90;;;19.30;85.10;;;;;;5073930;28;20491;-69
2022/05/06 09:37:41;;;;;;;10.50;8.57;;;19.50;85.10;;;;;;5071528;28;20455;-69
2022/05/06 09:40:13;;;;;;;10.70;9.13;;;19.70;84.80;;;;;;5071966;28;20490;-69
2022/05/06 09:42:41;;;;;;;15.17;12.10;;;19.70;84.50;;;;;;5072616;28;20416;-69
2022/05/06 09:45:08;;;;;;;14.70;13.20;;;19.50;86.90;;;;;;5071119;28;20454;-68
2022/05/06 09:47:34;;;;;;;12.63;11.27;;;19.20;88.30;;;;;;5072616;28;20465;-68
2022/05/06 09:50:01;;;;;;;14.30;12.83;;;19.20;89.10;;;;;;5072251;28;20770;-68
2022/05/06 09:52:27;;;;;;;12.90;11.60;;;19.10;88.60;;;;;;5072549;28;20419;-68
2022/05/06 09:54:53;;;;;;;13.57;11.40;;;19.20;88.80;;;;;;5072427;28;20469;-68
2022/05/06 09:57:19;;;;;;;16.67;13.53;;;19.20;88.50;;;;;;5072276;28;20174;-69
2022/05/06 09:59:45;;;;;;;14.47;12.97;;;19.20;88.60;;;;;;5072058;28;21064;-67
2022/05/06 10:02:11;;;;;;;15.30;11.90;;;19.10;88.60;;;;;;5072323;28;20173;-68
2022/05/06 10:04:37;;;;;;;15.33;11.67;;;19.00;89.60;;;;;;5071717;28;20936;-67
2022/05/06 10:07:12;;;;;;;15.33;12.83;;;19.10;89.80;;;;;;5071888;28;20173;-66
2022/05/06 10:09:58;;;;;;;15.27;12.90;;;19.30;89.90;;;;;;5070817;28;20427;-68
2022/05/06 10:12:27;;;;;;;13.53;12.13;;;19.50;88.80;;;;;;5071915;28;20177;-69
2022/05/06 10:14:54;;;;;;;18.00;12.67;;;19.70;87.90;;;;;;5071622;28;20412;-68
2022/05/06 10:17:54;;;;;;;13.70;12.13;;;19.80;87.50;;;;;;5071899;28;20535;-70
2022/05/06 10:20:43;;;;;;;12.07;10.97;;;19.80;87.90;;;;;;5071549;28;20463;-68
2022/05/06 10:23:15;;;;;;;13.13;11.23;;;19.90;88.30;;;;;;5072118;28;20405;-67
2022/05/06 10:25:40;;;;;;;13.20;12.10;;;19.80;87.60;;;;;;5061362;28;20451;-68
2022/05/06 10:34:12;;;;;;;12.33;11.03;;;19.60;87.20;;;;;;5051705;28;20936;-68
2022/05/06 10:36:52;;;;;;;12.07;10.63;;;19.80;86.30;;;;;;5051875;28;20416;-68
2022/05/06 10:39:17;;;;;;;10.83;9.80;;;19.80;85.90;;;;;;5057497;28;20462;-67
2022/05/06 10:42:05;;;;;;;12.80;10.50;;;20.00;84.90;;;;;;5071723;28;20465;-68
2022/05/06 10:44:48;;;;;;;13.75;12.35;;;20.20;84.70;;;;;;5064991;28;20507;-67
2022/05/06 10:47:16;;;;;;;14.90;13.50;;;20.30;85.30;;;;;;5064681;28;20217;-67
2022/05/06 10:49:43;;;;;;;16.07;14.50;;;20.20;86.10;;;;;;5069794;28;20460;-67
2022/05/06 10:52:20;;;;;;;14.73;13.17;;;20.00;85.70;;;;;;5069626;28;20800;-68
2022/05/06 10:54:47;;;;;;;16.03;12.40;;;20.00;86.00;;;;;;5069263;28;20838;-67
2022/05/06 10:57:15;;;;;;;13.70;12.23;;;19.90;86.50;;;;;;5070728;28;20434;-68
2022/05/06 11:00:02;;;;;;;13.40;12.00;;;19.90;86.00;;;;;;5069957;28;20558;-68
2022/05/06 11:02:30;;;;;;;12.50;10.90;;;20.00;84.40;;;;;;5071660;28;20391;-69
2022/05/06 11:04:55;;;;;;;11.60;10.00;;;20.00;83.40;;;;;;5071664;28;20453;-69
2022/05/06 11:07:21;;;;;;;12.83;10.30;;;20.20;84.20;;;;;;5071937;28;20419;-69
2022/05/06 11:09:47;;;;;;;15.40;11.53;;;20.30;83.50;;;;;;5071664;28;20217;-68
2022/05/06 11:12:35;;;;;;;13.30;12.10;;;20.40;83.70;;;;;;5071925;28;20447;-68
2022/05/06 11:15:03;;;;;;;15.70;14.20;;;20.60;83.30;;;;;;5052414;28;20412;-68
2022/05/06 11:17:30;;;;;;;15.10;13.50;;;20.30;83.70;;;;;;5051893;28;20893;-67
2022/05/06 11:19:55;;;;;;;12.90;11.80;;;20.10;83.40;;;;;;5051549;28;20996;-68
2022/05/06 11:22:23;;;;;;;13.70;12.27;;;19.90;83.90;;;;;;5050790;28;20416;-68
2022/05/06 11:24:48;;;;;;;14.17;12.77;;;19.70;84.20;;;;;;5055039;28;20165;-69
2022/05/06 11:27:19;;;;;;;15.83;12.77;;;19.50;84.30;;;;;;5072414;28;20407;-69
2022/05/06 11:29:49;;;;;;;14.73;13.33;;;19.40;84.80;;;;;;5071754;28;20190;-69
2022/05/06 11:32:15;;;;;;;15.32;13.82;;;19.20;85.30;;;;;;5070101;28;20414;-69
2022/05/06 11:34:47;;;;;;;12.80;11.13;;;19.00;85.70;;;;;;5071918;28;20176;-68
2022/05/06 11:37:24;;;;;;;11.80;10.60;;;19.10;86.90;;;;;;5071884;28;20400;-68
2022/05/06 11:39:50;;;;;;;14.03;11.30;;;19.20;86.50;;;;;;5071921;28;20462;-68
2022/05/06 11:42:23;;;;;;;12.73;11.43;;;19.30;85.60;;;;;;5071818;28;20406;-69
2022/05/06 11:47:42;;;;;;;13.17;11.87;;;19.80;85.90;;;;;;5071638;28;20427;-69
2022/05/06 11:50:10;;;;;;;13.37;12.03;;;20.00;84.60;;;;;;5071513;28;20836;-69
2022/05/06 11:52:37;;;;;;;13.53;12.30;;;20.10;83.20;;;;;;5071766;28;20579;-68
2022/05/06 11:55:05;;;;;;;14.27;12.87;;;20.10;81.10;;;;;;5072155;28;20415;-68
2022/05/06 11:57:30;;;;;;;14.23;12.90;;;20.10;81.00;;;;;;5071948;28;20879;-72
2022/05/06 11:59:56;;;;;;;12.07;10.90;;;20.00;80.60;;;;;;5071266;28;20556;-68
2022/05/06 12:02:22;;;;;;;10.73;8.97;;;20.10;81.00;;;;;;5071654;28;20404;-68
2022/05/06 12:04:47;;;;;;;11.00;10.00;;;20.30;82.30;;;;;;5073843;28;20426;-69
2022/05/06 12:07:13;;;;;;;12.10;11.10;;;20.40;80.80;;;;;;5075344;28;20176;-68
2022/05/06 12:09:46;;;;;;;13.10;10.70;;;20.40;80.00;;;;;;5074762;28;20204;-69
2022/05/06 12:12:12;;;;;;;10.60;9.50;;;20.30;79.30;;;;;;5074995;28;20176;-68
2022/05/06 12:14:38;;;;;;;9.43;8.63;;;20.20;76.80;;;;;;5058458;28;20425;-69
2022/05/06 12:17:12;;;;;;;8.80;7.63;;;20.00;76.60;;;;;;5055321;28;20419;-68
2022/05/06 12:19:47;;;;;;;11.60;10.53;;;20.10;76.70;;;;;;5054484;28;20468;-69
2022/05/06 12:22:15;;;;;;;11.33;10.33;;;20.00;77.10;;;;;;5054922;28;20884;-67
2022/05/06 12:24:52;;;;;;;12.60;11.37;;;19.80;78.50;;;;;;5056684;28;20401;-71
2022/05/06 12:27:31;;;;;;;11.13;10.10;;;19.90;79.60;;;;;;5074657;28;20404;-69
2022/05/06 12:29:58;;;;;;;12.03;10.93;;;20.00;79.00;;;;;;5056961;28;20436;-68
2022/05/06 12:32:24;;;;;;;14.93;11.87;;;20.10;78.90;;;;;;5074736;28;20907;-69
2022/05/06 12:35:10;;;;;;;13.13;12.03;;;20.10;78.90;;;;;;5074709;28;20940;-69
2022/05/06 12:37:52;;;;;;;12.67;11.40;;;20.30;78.30;;;;;;5074521;28;20457;-68
2022/05/06 12:40:17;;;;;;;13.87;12.53;;;20.40;78.60;;;;;;5074344;28;20459;-68
2022/05/06 12:42:43;;;;;;;19.43;17.43;;;20.60;80.20;;;;;;5074588;28;20864;-68
2022/05/06 12:45:12;;;;;;;17.00;15.50;;;20.70;80.50;;;;;;5073269;28;20173;-69
2022/05/06 12:50:21;;;;;;;19.47;17.47;;;20.90;80.50;;;;;;5074608;28;20422;-67
2022/05/06 12:52:47;;;;;;;20.23;18.43;;;20.90;80.70;;;;;;5074757;28;20502;-68
2022/05/06 12:55:13;;;;;;;23.67;21.43;;;20.90;80.00;;;;;;5073529;28;20201;-70
2022/05/06 12:57:39;;;;;;;23.17;20.97;;;20.80;80.30;;;;;;5074679;28;20185;-68
2022/05/06 13:00:05;;;;;;;20.20;18.10;;;20.70;80.30;;;;;;5074136;28;20463;-68
2022/05/06 13:02:31;;;;;;;21.37;18.90;;;20.60;79.70;;;;;;5074339;28;20450;-68
2022/05/06 13:04:57;;;;;;;20.37;18.43;;;20.70;79.80;;;;;;5074548;28;20455;-68
2022/05/06 13:07:22;;;;;;;20.30;18.50;;;20.70;79.60;;;;;;5074589;28;20187;-68
2022/05/06 13:09:47;;;;;;;18.70;17.13;;;20.70;79.50;;;;;;5073556;28;20239;-68
2022/05/06 13:12:13;;;;;;;18.50;16.90;;;20.80;79.30;;;;;;5074469;28;20170;-69
2022/05/06 13:14:40;;;;;;;19.03;17.27;;;20.90;78.40;;;;;;5078019;22;20240;-73
2022/05/06 13:17:05;;;;;;;18.33;16.80;;;21.00;78.40;;;;;;5043953;28;20206;-72
2022/05/06 13:19:31;;;;;;;17.80;16.37;;;21.10;78.30;;;;;;5044481;28;21027;-72
2022/05/06 13:21:57;;;;;;;16.63;15.00;;;21.00;78.20;;;;;;5051828;28;20293;-72